Time;durP1;ratioP1;P1;durP2;ratioP2;P2;SDS_P1;SDS_P2;PMS_P1;PMS_P2;Temp;Humidity;BMP_temperature;BMP_pressure;BME280_temperature;BME280_humidity;BME280_pressure;Samples;Min_cycle;Max_cycle;Signal;HPM_P1;HPM_P2
2022/03/31 00:00:41;;;;;;;;;58.75;45.00;;;;;11.11;61.92;99388.75;5018227;28;45379;-82
2022/03/31 00:03:08;;;;;;;;;54.75;41.00;;;;;11.03;61.22;99371.31;5037497;28;45460;-81
2022/03/31 00:05:34;;;;;;;;;46.50;37.50;;;;;11.12;60.81;99387.84;5037312;28;45350;-81
2022/03/31 00:08:03;;;;;;;;;50.50;42.75;;;;;11.10;60.93;99397.53;5018426;28;45326;-84
2022/03/31 00:10:39;;;;;;;;;49.75;40.00;;;;;11.07;60.89;99388.81;5017513;28;45169;-82
2022/03/31 00:13:07;;;;;;;;;48.00;39.25;;;;;10.80;61.04;99359.38;5017689;28;45342;-80
2022/03/31 00:15:33;;;;;;;;;44.00;36.75;;;;;10.97;60.62;99376.66;5019518;28;45255;-83
2022/03/31 00:18:00;;;;;;;;;49.75;40.75;;;;;10.91;60.72;99384.69;5029528;28;45448;-84
2022/03/31 00:20:26;;;;;;;;;48.50;37.00;;;;;10.92;60.99;99386.44;5038970;28;45221;-82
2022/03/31 00:22:53;;;;;;;;;42.00;37.00;;;;;10.88;59.89;99385.59;5019920;28;45248;-80
2022/03/31 00:25:18;;;;;;;;;48.50;40.25;;;;;10.84;60.76;99382.16;5017351;28;45203;-84
2022/03/31 00:27:44;;;;;;;;;48.75;38.25;;;;;10.53;61.00;99329.06;5024728;28;46016;-83
2022/03/31 00:30:13;;;;;;;;;47.50;39.50;;;;;10.88;60.52;99382.09;5022226;28;45502;-84
2022/03/31 00:32:38;;;;;;;;;45.25;38.00;;;;;10.89;60.52;99381.19;5017501;28;45347;-83
2022/03/31 00:35:05;;;;;;;;;43.50;37.00;;;;;10.83;60.75;99372.50;5017623;28;45402;-84
2022/03/31 00:37:31;;;;;;;;;34.00;33.75;;;;;10.89;60.35;99379.47;5027903;28;45936;-83
2022/03/31 00:39:56;;;;;;;;;40.50;33.75;;;;;10.88;60.38;99375.06;5037074;28;45310;-83
2022/03/31 00:42:22;;;;;;;;;36.50;35.50;;;;;10.80;60.00;99355.88;5035709;28;45401;-82
2022/03/31 00:44:49;;;;;;;;;37.50;35.00;;;;;10.88;59.86;99361.00;5017358;28;45377;-84
2022/03/31 00:47:15;;;;;;;;;42.25;35.50;;;;;10.84;59.11;99366.34;5017236;28;45974;-82
2022/03/31 00:49:41;;;;;;;;;40.00;35.25;;;;;10.47;59.74;99305.47;5019118;28;45587;-81
2022/03/31 00:52:07;;;;;;;;;43.25;33.50;;;;;10.76;59.55;99346.28;5032164;28;45357;-83
2022/03/31 00:54:34;;;;;;;;;37.50;35.00;;;;;10.84;58.99;99366.34;5038214;28;45524;-83
2022/03/31 00:57:02;;;;;;;;;54.00;37.75;;;;;10.67;59.68;99325.34;5038688;28;46191;-83
2022/03/31 00:59:29;;;;;;;;;38.50;36.00;;;;;10.88;58.95;99355.75;5033115;28;45272;-81
2022/03/31 01:01:56;;;;;;;;;37.50;28.75;;;;;10.81;58.62;99342.69;5025923;28;45496;-82
2022/03/31 01:04:21;;;;;;;;;35.75;32.75;;;;;10.88;59.38;99348.69;5017795;28;45429;-82
2022/03/31 01:06:47;;;;;;;;;36.25;32.75;;;;;10.88;59.09;99346.06;5031246;28;45916;-81
2022/03/31 01:09:13;;;;;;;;;44.00;35.25;;;;;10.84;58.78;99345.25;5033506;28;45468;-83
2022/03/31 01:11:39;;;;;;;;;39.00;34.00;;;;;10.82;58.88;99344.41;5023935;28;45537;-84
2022/03/31 01:14:06;;;;;;;;;40.25;33.50;;;;;10.55;59.54;99292.19;5017535;28;45346;-82
2022/03/31 01:16:33;;;;;;;;;34.75;33.25;;;;;10.75;59.72;99336.63;5017393;28;46203;-82
2022/03/31 01:19:05;;;;;;;;;42.00;35.75;;;;;10.66;59.86;99324.47;5018117;28;45460;-84
2022/03/31 01:21:36;;;;;;;;;42.50;34.50;;;;;10.63;60.17;99328.94;5031261;28;45338;-82
2022/03/31 01:24:03;;;;;;;;;39.00;35.00;;;;;10.65;59.72;99329.78;5018978;28;45346;-82
2022/03/31 01:26:28;;;;;;;;;37.50;30.25;;;;;10.63;60.14;99334.22;5028343;28;45306;-84
2022/03/31 01:28:54;;;;;;;;;44.50;36.25;;;;;10.56;60.67;99333.41;5027426;28;45326;-79
2022/03/31 01:31:20;;;;;;;;;42.75;38.25;;;;;10.40;60.35;99318.72;5039201;28;45604;-82
2022/03/31 01:33:45;;;;;;;;;37.00;34.50;;;;;10.11;61.04;99275.25;5037270;28;45382;-83
2022/03/31 01:36:11;;;;;;;;;43.50;38.00;;;;;10.36;60.86;99331.09;5033004;28;46194;-83
2022/03/31 01:38:36;;;;;;;;;44.25;35.25;;;;;10.04;60.68;99276.22;5032329;28;45237;-81
2022/03/31 01:41:03;;;;;;;;;42.25;38.25;;;;;10.22;61.29;99320.72;5018256;28;45415;-81
2022/03/31 01:43:29;;;;;;;;;37.75;35.50;;;;;9.75;61.36;99247.69;5023419;28;45473;-82
2022/03/31 01:45:54;;;;;;;;;40.50;37.50;;;;;10.14;61.30;99316.44;5041278;28;46149;-79
2022/03/31 01:48:20;;;;;;;;;41.50;36.25;;;;;10.11;61.78;99312.09;5040296;28;44888;-81
2022/03/31 01:50:46;;;;;;;;;43.75;37.75;;;;;9.96;61.70;99302.66;5039085;28;45495;-82
2022/03/31 01:53:14;;;;;;;;;47.00;39.50;;;;;9.84;61.83;99281.75;5036326;28;45282;-82
2022/03/31 01:55:40;;;;;;;;;48.25;39.00;;;;;10.00;61.75;99312.22;5039664;28;45509;-83
2022/03/31 01:58:07;;;;;;;;;42.25;38.00;;;;;9.90;62.34;99294.84;5038148;28;45301;-81
2022/03/31 02:00:32;;;;;;;;;47.75;41.50;;;;;9.88;62.41;99304.50;5033806;28;45506;-82
2022/03/31 02:02:59;;;;;;;;;48.25;40.25;;;;;9.83;62.33;99292.28;5040069;28;45232;-83
2022/03/31 02:05:25;;;;;;;;;48.00;39.00;;;;;9.66;63.01;99281.97;5040839;28;45973;-83
2022/03/31 02:07:54;;;;;;;;;53.75;42.25;;;;;9.58;63.23;99268.94;5027974;28;45327;-81
2022/03/31 02:10:20;;;;;;;;;47.00;39.75;;;;;9.70;63.53;99286.34;5019807;28;45224;-81
2022/03/31 02:12:47;;;;;;;;;57.25;43.75;;;;;9.67;63.39;99295.09;5021456;28;45246;-80
2022/03/31 02:15:13;;;;;;;;;43.50;38.75;;;;;9.63;64.22;99296.03;5022099;28;45662;-82
2022/03/31 02:17:38;;;;;;;;;53.25;42.50;;;;;9.52;64.19;99287.44;5039175;28;45390;-82
2022/03/31 02:20:04;;;;;;;;;53.75;43.50;;;;;9.53;64.01;99297.03;5039352;28;45247;-82
2022/03/31 02:22:30;;;;;;;;;48.00;42.00;;;;;9.45;64.88;99284.88;5028564;28;45588;-81
2022/03/31 02:24:55;;;;;;;;;59.50;44.75;;;;;9.51;64.90;99296.19;5026958;28;45302;-82
2022/03/31 02:27:21;;;;;;;;;53.00;42.00;;;;;9.23;64.96;99244.84;5037564;28;47248;-82
2022/03/31 02:29:47;;;;;;;;;51.50;42.25;;;;;9.48;64.55;99296.22;5023473;28;45444;-82
2022/03/31 02:32:12;;;;;;;;;56.75;44.75;;;;;9.42;64.98;99288.41;5018986;28;45424;-82
2022/03/31 02:34:37;;;;;;;;;43.25;39.75;;;;;9.36;65.31;99299.00;5025416;28;45412;-81
2022/03/31 02:37:04;;;;;;;;;58.25;42.75;;;;;9.28;65.46;99291.19;5038579;28;45374;-83
2022/03/31 02:39:30;;;;;;;;;55.25;46.75;;;;;9.24;65.16;99293.88;5038712;28;45303;-82
2022/03/31 02:41:57;;;;;;;;;59.33;47.00;;;;;9.08;65.39;99274.75;5023209;28;45168;-82
2022/03/31 02:44:24;;;;;;;;;56.50;45.00;;;;;9.19;65.70;99299.16;5020104;28;46046;-81
2022/03/31 02:46:49;;;;;;;;;62.25;49.25;;;;;9.15;65.84;99294.84;5018898;28;45228;-82
2022/03/31 02:49:15;;;;;;;;;58.50;44.00;;;;;9.08;65.90;99283.50;5021511;28;45465;-82
2022/03/31 02:51:40;;;;;;;;;53.25;44.50;;;;;9.09;65.90;99293.13;5033183;28;45439;-81
2022/03/31 02:56:50;;;;;;;;;59.33;44.67;;;;;8.99;65.82;99285.34;5018842;28;45509;-83
2022/03/31 02:59:15;;;;;;;;;55.67;42.67;;;;;8.94;66.29;99290.66;5018627;28;45382;-83
2022/03/31 03:01:43;;;;;;;;;52.50;44.25;;;;;8.94;65.78;99290.66;5019084;28;45390;-81
2022/03/31 03:04:09;;;;;;;;;61.33;50.33;;;;;8.89;66.09;99292.44;5018195;28;45325;-81
2022/03/31 03:06:36;;;;;;;;;54.00;42.67;;;;;8.89;66.61;99295.06;5025317;28;45477;-82
2022/03/31 03:09:02;;;;;;;;;59.67;47.00;;;;;8.71;66.51;99256.72;5018133;28;45430;-82
2022/03/31 03:11:28;;;;;;;;;58.67;44.33;;;;;8.84;66.04;99284.63;5030630;28;45449;-81
2022/03/31 03:13:54;;;;;;;;;45.00;38.00;;;;;8.65;66.09;99254.13;5018196;28;45400;-81
2022/03/31 03:16:19;;;;;;;;;67.67;50.00;;;;;8.81;66.79;99279.38;5024547;28;45208;-82
2022/03/31 03:18:45;;;;;;;;;53.33;42.33;;;;;8.78;66.94;99273.28;5039331;28;45555;-82
2022/03/31 03:21:11;;;;;;;;;60.67;49.00;;;;;8.83;66.43;99279.38;5033067;28;45339;-81
2022/03/31 03:23:38;;;;;;;;;60.00;47.00;;;;;8.82;66.82;99278.50;5018366;28;46214;-81
2022/03/31 03:26:05;;;;;;;;;59.00;46.67;;;;;8.68;67.36;99250.63;5018446;28;45675;-81
2022/03/31 03:28:32;;;;;;;;;60.00;45.67;;;;;8.77;66.89;99266.31;5037900;28;45426;-81
2022/03/31 03:30:57;;;;;;;;;53.33;44.67;;;;;8.66;67.09;99252.41;5024139;28;45516;-80
2022/03/31 03:33:23;;;;;;;;;64.33;50.67;;;;;8.71;67.09;99263.72;5037614;28;45335;-82
2022/03/31 03:35:49;;;;;;;;;57.33;47.00;;;;;8.52;66.58;99229.75;5037710;28;45183;-83
2022/03/31 03:38:15;;;;;;;;;61.67;49.33;;;;;8.54;67.11;99235.00;5034194;28;45362;-82
2022/03/31 03:40:41;;;;;;;;;68.00;53.00;;;;;8.57;67.24;99237.63;5038162;28;45385;-82
2022/03/31 03:43:06;;;;;;;;;60.00;48.00;;;;;8.71;66.55;99266.34;5037594;28;45458;-82
2022/03/31 03:45:32;;;;;;;;;58.00;48.33;;;;;8.66;66.61;99245.41;5037305;28;45374;-82
2022/03/31 03:47:58;;;;;;;;;66.33;52.67;;;;;8.40;66.26;99208.00;5021215;28;45409;-83
2022/03/31 03:50:25;;;;;;;;;59.33;47.33;;;;;8.71;66.77;99255.84;5017824;28;45379;-82
2022/03/31 03:52:51;;;;;;;;;61.00;48.67;;;;;8.70;66.06;99262.00;5018833;28;46325;-82
2022/03/31 03:55:16;;;;;;;;;65.00;51.67;;;;;8.67;66.40;99251.53;5018575;28;45347;-82
2022/03/31 03:57:42;;;;;;;;;57.33;47.00;;;;;8.72;65.71;99268.97;5017826;28;45355;-80
2022/03/31 04:00:09;;;;;;;;;56.67;46.33;;;;;8.71;66.46;99268.97;5030692;28;45398;-80
2022/03/31 04:02:35;;;;;;;;;60.33;47.33;;;;;8.66;66.21;99260.28;5036031;28;46309;-81
2022/03/31 04:05:00;;;;;;;;;61.67;45.67;;;;;8.71;65.75;99276.84;5037485;28;45351;-81
2022/03/31 04:07:26;;;;;;;;;57.33;46.67;;;;;8.72;65.49;99266.34;5036187;28;45260;-81
2022/03/31 04:09:51;;;;;;;;;55.33;43.33;;;;;8.73;65.15;99273.31;5033979;28;45457;-80
2022/03/31 04:12:17;;;;;;;;;63.33;47.67;;;;;8.64;65.16;99256.78;5037078;28;45358;-82
2022/03/31 04:14:42;;;;;;;;;64.33;47.00;;;;;8.53;64.98;99222.75;5036839;28;45408;-82
2022/03/31 04:17:08;;;;;;;;;64.00;50.33;;;;;8.68;65.09;99256.75;5018464;28;45485;-82
2022/03/31 04:19:33;;;;;;;;;56.67;46.67;;;;;8.72;64.60;99266.34;5019057;28;45343;-82
2022/03/31 04:21:59;;;;;;;;;57.67;46.00;;;;;8.75;65.07;99262.84;5017035;28;46182;-82
2022/03/31 04:24:25;;;;;;;;;56.33;47.67;;;;;8.67;64.18;99255.03;5016420;28;45830;-81
2022/03/31 04:26:50;;;;;;;;;63.00;49.67;;;;;8.62;64.78;99256.81;5017277;28;45470;-82
2022/03/31 04:29:16;;;;;;;;;53.67;45.00;;;;;8.54;64.41;99229.75;5018213;28;45468;-83
2022/03/31 04:31:43;;;;;;;;;57.67;46.67;;;;;8.69;63.73;99270.75;5029253;28;45433;-81
2022/03/31 04:34:15;;;;;;;;;62.00;46.67;;;;;8.69;64.22;99268.13;5036877;28;45204;-82
2022/03/31 04:36:41;;;;;;;;;61.00;48.33;;;;;8.64;64.20;99262.91;5037196;28;45557;-77
2022/03/31 04:39:07;;;;;;;;;60.33;48.33;;;;;8.62;64.19;99262.06;5025135;28;45358;-81
2022/03/31 04:41:33;;;;;;;;;62.67;48.00;;;;;8.59;63.74;99256.84;5023047;28;45501;-79
2022/03/31 04:43:58;;;;;;;;;59.00;47.33;;;;;8.68;64.13;99276.88;5035848;28;45209;-79
2022/03/31 04:46:24;;;;;;;;;58.00;44.00;;;;;8.59;64.49;99272.59;5039956;28;45216;-77
2022/03/31 04:48:50;;;;;;;;;60.33;49.67;;;;;8.58;64.18;99276.09;5041137;28;45219;-81
2022/03/31 04:51:15;;;;;;;;;62.00;48.67;;;;;8.31;64.41;99224.66;5036987;28;46428;-84
2022/03/31 04:53:40;;;;;;;;;60.33;47.67;;;;;8.48;64.17;99259.56;5020439;28;45473;-85
2022/03/31 04:56:06;;;;;;;;;62.33;50.00;;;;;8.39;64.32;99241.25;5018078;28;45860;-87
2022/03/31 04:58:31;;;;;;;;;57.00;45.67;;;;;8.47;64.48;99259.56;5037129;28;45527;-87
2022/03/31 05:00:57;;;;;;;;;62.67;49.33;;;;;8.37;64.41;99258.75;5037796;28;45946;-88
2022/03/31 05:03:22;;;;;;;;;62.33;49.33;;;;;8.15;65.03;99233.53;5028429;28;45430;-83
2022/03/31 05:05:48;;;;;;;;;66.67;50.33;;;;;8.30;65.42;99264.91;5025485;28;47270;-78
2022/03/31 05:08:14;;;;;;;;;53.67;42.67;;;;;8.10;65.75;99244.06;5017012;28;45351;-77
2022/03/31 05:10:42;;;;;;;;;69.67;48.67;;;;;8.13;65.48;99249.28;5016519;28;45944;-81
2022/03/31 05:13:07;;;;;;;;;63.67;48.33;;;;;8.06;65.24;99244.06;5016566;28;45266;-80
2022/03/31 05:15:33;;;;;;;;;61.00;47.33;;;;;8.19;66.06;99270.22;5018756;28;45176;-81
2022/03/31 05:17:58;;;;;;;;;63.67;51.33;;;;;8.13;65.78;99259.78;5016563;28;45253;-81
2022/03/31 05:20:24;;;;;;;;;65.00;47.00;;;;;8.07;65.95;99261.53;5019192;28;46544;-79
2022/03/31 05:22:49;;;;;;;;;66.33;52.33;;;;;8.03;65.68;99251.97;5030271;28;45244;-81
2022/03/31 05:25:15;;;;;;;;;57.00;45.00;;;;;8.13;65.37;99279.88;5027691;28;45637;-81
2022/03/31 05:27:45;;;;;;;;;71.33;53.00;;;;;8.06;66.78;99275.53;5016796;28;45362;-81
2022/03/31 05:30:16;;;;;;;;;65.67;50.00;;;;;7.97;66.10;99256.34;5023230;28;45506;-79
2022/03/31 05:32:42;;;;;;;;;70.67;54.67;;;;;8.10;66.33;99286.03;5016083;28;45307;-77
2022/03/31 05:35:09;;;;;;;;;75.00;57.33;;;;;7.98;66.93;99270.34;5031613;28;45282;-80
2022/03/31 05:37:35;;;;;;;;;70.33;53.33;;;;;8.03;67.14;99271.19;5033333;28;45546;-80
2022/03/31 05:40:06;;;;;;;;;61.00;46.00;;;;;7.96;66.98;99269.47;5054982;28;46075;-82
2022/03/31 05:42:32;;;;;;;;;67.00;54.33;;;;;8.02;66.24;99290.44;5038340;28;45589;-77
2022/03/31 05:44:59;;;;;;;;;68.00;52.33;;;;;8.02;67.04;99286.94;5035998;28;45322;-80
2022/03/31 05:47:25;;;;;;;;;68.00;55.67;;;;;8.08;66.57;99293.00;5049857;28;45567;-81
2022/03/31 05:49:50;;;;;;;;;71.33;55.67;;;;;8.08;67.69;99295.63;5036821;28;45584;-81
2022/03/31 05:52:16;;;;;;;;;71.00;55.67;;;;;8.13;66.89;99300.88;5041440;28;45501;-80
2022/03/31 05:54:42;;;;;;;;;76.33;58.67;;;;;7.93;66.66;99252.03;5043158;28;45327;-82
2022/03/31 05:57:10;;;;;;;;;70.33;51.33;;;;;8.11;67.35;99279.91;5042211;28;45444;-86
2022/03/31 05:59:35;;;;;;;;;76.33;57.00;;;;;8.22;67.33;99306.94;5037890;28;46238;-83
2022/03/31 06:02:02;;;;;;;;;71.00;56.33;;;;;8.16;66.45;99275.47;5019376;28;45402;-82
2022/03/31 06:04:27;;;;;;;;;73.67;56.00;;;;;8.39;66.62;99311.22;5020014;28;45378;-81
2022/03/31 06:06:53;;;;;;;;;71.00;57.33;;;;;8.38;66.58;99306.88;5023782;28;45261;-82
2022/03/31 06:09:18;;;;;;;;;76.67;60.33;;;;;8.44;67.02;99312.94;5022622;28;45964;-80
2022/03/31 06:11:44;;;;;;;;;77.67;57.00;;;;;8.53;66.81;99315.47;5023391;28;45405;-82
2022/03/31 06:14:11;;;;;;;;;74.33;59.33;;;;;8.57;66.45;99325.09;5043433;28;45315;-80
2022/03/31 06:16:37;;;;;;;;;75.67;58.67;;;;;8.58;66.20;99325.97;5042266;28;45255;-82
2022/03/31 06:19:03;;;;;;;;;70.33;52.00;;;;;8.60;66.40;99318.06;5041305;28;46245;-83
2022/03/31 06:21:29;;;;;;;;;79.00;60.00;;;;;8.65;66.33;99321.53;5038838;28;45244;-81
2022/03/31 06:23:54;;;;;;;;;74.67;58.00;;;;;8.68;66.39;99319.75;5040179;28;45466;-82
2022/03/31 06:26:20;;;;;;;;;73.33;53.67;;;;;8.63;66.36;99316.28;5042725;28;45433;-80
2022/03/31 06:28:46;;;;;;;;;75.67;59.00;;;;;8.80;66.31;99326.66;5019636;28;45303;-82
2022/03/31 06:31:11;;;;;;;;;73.33;57.33;;;;;8.85;65.72;99338.00;5019472;28;45304;-78
2022/03/31 06:33:37;;;;;;;;;77.67;59.00;;;;;8.88;65.40;99329.22;5025086;28;45361;-82
2022/03/31 06:36:03;;;;;;;;;73.67;53.67;;;;;8.87;65.23;99331.00;5026696;28;45481;-80
2022/03/31 06:38:29;;;;;;;;;74.00;57.67;;;;;8.89;65.63;99334.47;5017785;28;46185;-81
2022/03/31 06:41:28;;;;;;;;;78.67;59.00;;;;;8.98;65.11;99337.00;5024035;28;45446;-82
2022/03/31 06:43:48;;;;;;;;;73.33;55.33;;;;;9.03;64.58;99342.25;5018584;28;45611;-82
2022/03/31 06:46:15;;;;;;;;;70.33;53.33;;;;;9.07;65.18;99330.81;5017927;28;45583;-82
2022/03/31 06:48:43;;;;;;;;;75.00;57.33;;;;;9.11;64.58;99332.50;5027611;28;45548;-83
2022/03/31 06:51:10;;;;;;;;;75.67;56.00;;;;;9.10;64.58;99326.38;5044132;28;45397;-83
2022/03/31 06:53:37;;;;;;;;;68.00;53.00;;;;;9.17;64.63;99332.47;5039500;28;45425;-81
2022/03/31 06:56:06;;;;;;;;;67.33;54.00;;;;;9.17;63.83;99313.19;5040223;28;45260;-81
2022/03/31 06:58:33;;;;;;;;;65.33;52.00;;;;;9.06;64.10;99293.16;5039600;28;45219;-81
2022/03/31 07:00:59;;;;;;;;;63.67;52.33;;;;;9.22;64.24;99295.66;5039781;28;45481;-78
2022/03/31 07:03:25;;;;;;;;;73.67;56.33;;;;;9.41;63.54;99312.97;5037374;28;45489;-81
2022/03/31 07:05:51;;;;;;;;;65.00;53.00;;;;;9.50;63.21;99304.09;5039584;28;45237;-81
2022/03/31 07:08:17;;;;;;;;;66.33;53.33;;;;;9.48;62.55;99280.44;5026872;28;46094;-81
2022/03/31 07:10:44;;;;;;;;;63.67;49.33;;;;;9.61;62.70;99275.94;5024055;28;45480;-81
2022/03/31 07:13:09;;;;;;;;;68.67;53.00;;;;;9.93;61.74;99317.59;5020343;28;45432;-81
2022/03/31 07:15:35;;;;;;;;;62.33;49.00;;;;;10.03;61.62;99307.81;5032170;28;45480;-78
2022/03/31 07:18:04;;;;;;;;;70.67;55.00;;;;;9.99;61.11;99302.59;5056064;28;45486;-80
2022/03/31 07:20:32;;;;;;;;;66.33;51.33;;;;;10.04;61.30;99313.06;5057504;28;45446;-81
2022/03/31 07:22:58;;;;;;;;;70.00;54.33;;;;;10.04;61.27;99299.03;5044106;28;45325;-80
2022/03/31 07:25:24;;;;;;;;;68.67;50.67;;;;;10.11;61.02;99319.97;5042943;28;45412;-80
2022/03/31 07:27:50;;;;;;;;;61.67;48.00;;;;;10.10;60.86;99312.13;5043016;28;45484;-78
2022/03/31 07:30:18;;;;;;;;;62.00;49.00;;;;;9.87;61.13;99292.25;5035252;28;45541;-81
2022/03/31 07:32:54;;;;;;;;;68.33;52.67;;;;;9.95;61.38;99321.94;5039305;28;45355;-79
2022/03/31 07:35:21;;;;;;;;;66.00;53.00;;;;;9.85;61.78;99317.69;5046968;28;45410;-82
2022/03/31 07:37:51;;;;;;;;;68.33;54.33;;;;;9.78;62.08;99323.94;5043789;28;46035;-78
2022/03/31 07:40:21;;;;;;;;;65.33;52.67;;;;;9.87;61.88;99326.44;5044442;28;45416;-80
2022/03/31 07:42:48;;;;;;;;;75.33;55.67;;;;;9.86;62.44;99326.44;5044508;28;45488;-79
2022/03/31 07:45:13;;;;;;;;;49.00;42.00;;;;;9.24;62.02;99250.06;5056726;28;45375;-79
2022/03/31 07:47:40;;;;;;;;;64.00;50.33;;;;;9.46;62.66;99290.09;5051541;28;46067;-82
2022/03/31 07:50:09;;;;;;;;;67.75;54.00;;;;;9.69;63.27;99335.44;5050427;28;44878;-78
2022/03/31 07:52:36;;;;;;;;;68.67;53.67;;;;;9.36;63.35;99304.25;5060167;28;44858;-80
2022/03/31 07:55:02;;;;;;;;;63.75;48.25;;;;;9.57;64.17;99339.94;5053719;28;45387;-81
2022/03/31 07:57:27;;;;;;;;;62.00;51.00;;;;;9.50;64.54;99333.88;5050163;28;47278;-79
2022/03/31 07:59:53;;;;;;;;;66.67;51.67;;;;;9.34;64.37;99306.91;5047334;28;45320;-80
2022/03/31 08:02:18;;;;;;;;;64.00;51.33;;;;;9.54;64.87;99343.47;5046289;28;45562;-82
2022/03/31 08:04:44;;;;;;;;;66.33;52.00;;;;;9.51;65.34;99340.88;5042273;28;45300;-81
2022/03/31 08:07:09;;;;;;;;;69.33;54.00;;;;;9.49;66.03;99347.91;5039700;28;45834;-81
2022/03/31 08:09:35;;;;;;;;;66.00;53.67;;;;;9.50;66.08;99346.16;5026360;28;45368;-83
2022/03/31 08:12:05;;;;;;;;;70.67;55.33;;;;;9.49;66.60;99349.66;5018552;28;45363;-82
2022/03/31 08:14:31;;;;;;;;;60.25;50.00;;;;;9.18;66.04;99304.44;5018816;28;45170;-82
2022/03/31 08:16:57;;;;;;;;;59.75;44.00;;;;;9.33;66.19;99360.34;5019030;28;46069;-82
2022/03/31 08:19:22;;;;;;;;;33.50;26.50;;;;;9.09;65.59;99356.16;5018170;28;45330;-82
2022/03/31 08:21:48;;;;;;;;;36.00;29.25;;;;;8.74;65.01;99324.06;5018285;28;45419;-80
2022/03/31 08:24:15;;;;;;;;;23.00;21.50;;;;;8.89;64.44;99375.63;5018105;28;45317;-82
2022/03/31 08:26:41;;;;;;;;;23.00;21.25;;;;;8.65;64.35;99356.50;5018293;28;45340;-82
2022/03/31 08:29:08;;;;;;;;;26.50;23.50;;;;;8.65;64.70;99384.53;5022144;28;45266;-80
2022/03/31 08:31:34;;;;;;;;;26.25;24.00;;;;;8.51;64.50;99392.50;5022105;28;45333;-79
2022/03/31 08:34:04;;;;;;;;;20.75;20.25;;;;;8.44;64.39;99402.16;5018342;28;45321;-81
2022/03/31 08:36:29;;;;;;;;;21.50;18.00;;;;;8.38;64.07;99404.81;5017315;28;45461;-82
2022/03/31 08:38:55;;;;;;;;;18.00;16.75;;;;;8.17;63.90;99407.50;5036357;28;45428;-79
2022/03/31 08:41:24;;;;;;;;;19.25;19.00;;;;;8.09;64.47;99418.00;5037799;28;45398;-81
2022/03/31 08:43:51;;;;;;;;;16.75;16.25;;;;;7.98;63.68;99407.56;5037693;28;45253;-80
2022/03/31 08:46:18;;;;;;;;;17.25;16.25;;;;;7.98;63.19;99407.56;5037421;28;45726;-79
2022/03/31 08:48:44;;;;;;;;;14.50;13.00;;;;;7.95;63.06;99425.94;5037491;28;45375;-81
2022/03/31 08:51:10;;;;;;;;;12.50;12.50;;;;;7.95;63.26;99433.81;5034523;28;45263;-81
2022/03/31 08:53:36;;;;;;;;;13.25;11.75;;;;;7.88;62.14;99450.44;5017335;28;45342;-79
2022/03/31 08:56:03;;;;;;;;;12.75;12.75;;;;;7.74;62.71;99419.91;5037406;28;45985;-80
2022/03/31 08:58:29;;;;;;;;;9.25;9.25;;;;;7.76;62.82;99436.50;5037359;28;45236;-80
2022/03/31 09:00:54;;;;;;;;;5.00;5.00;;;;;7.77;62.22;99446.09;5038458;28;45146;-78
2022/03/31 09:03:20;;;;;;;;;11.50;11.50;;;;;7.65;62.84;99440.00;5038308;28;45390;-80
2022/03/31 09:05:51;;;;;;;;;12.50;10.50;;;;;7.49;62.98;99427.78;5041954;28;45273;-79
2022/03/31 09:08:17;;;;;;;;;12.25;11.25;;;;;7.65;63.25;99471.47;5019611;28;45488;-80
2022/03/31 09:10:49;;;;;;;;;12.25;12.25;;;;;7.42;63.27;99455.72;5020389;28;45259;-81
2022/03/31 09:13:22;;;;;;;;;10.25;10.00;;;;;7.55;63.50;99487.19;5020862;28;45380;-81
2022/03/31 09:15:51;;;;;;;;;8.75;8.75;;;;;7.53;63.19;99489.78;5021622;28;45582;-81
2022/03/31 09:18:19;;;;;;;;;11.50;8.50;;;;;7.42;63.44;99479.31;5020919;28;45371;-81
2022/03/31 09:20:46;;;;;;;;;12.50;12.50;;;;;7.35;64.49;99479.31;5021011;28;45386;-81
2022/03/31 09:23:21;;;;;;;;;8.00;8.00;;;;;7.40;64.82;99499.41;5020932;28;45506;-80
2022/03/31 09:25:51;;;;;;;;;11.50;11.50;;;;;7.34;64.59;99498.53;5020649;28;46324;-80
2022/03/31 09:28:25;;;;;;;;;13.75;12.75;;;;;7.41;64.95;99508.13;5021125;28;45444;-79
2022/03/31 09:30:55;;;;;;;;;11.25;10.25;;;;;7.32;65.14;99498.53;5040686;28;45348;-81
2022/03/31 09:33:31;;;;;;;;;12.75;12.75;;;;;7.28;65.22;99507.28;5040695;28;45390;-81
2022/03/31 09:36:21;;;;;;;;;10.50;8.00;;;;;7.20;65.83;99510.75;5040030;28;47028;-79
2022/03/31 09:38:58;;;;;;;;;10.00;8.75;;;;;7.15;64.64;99518.59;5040111;28;45430;-83
2022/03/31 09:41:27;;;;;;;;;10.00;9.75;;;;;7.04;65.91;99533.41;5046286;28;45179;-81
2022/03/31 09:43:55;;;;;;;;;14.75;12.25;;;;;7.06;66.85;99527.28;5021752;28;45429;-83
2022/03/31 09:46:23;;;;;;;;;10.25;10.25;;;;;7.11;65.40;99517.72;5020564;28;45566;-83
2022/03/31 09:48:49;;;;;;;;;11.00;10.75;;;;;7.18;65.26;99531.72;5020099;28;45230;-83
2022/03/31 09:51:15;;;;;;;;;10.50;10.00;;;;;7.08;65.22;99519.47;5020902;28;45242;-82
2022/03/31 09:53:42;;;;;;;;;8.75;8.75;;;;;7.07;65.62;99512.47;5020900;28;45216;-81
2022/03/31 09:56:07;;;;;;;;;12.75;11.50;;;;;6.97;64.83;99482.75;5023787;28;45659;-81
2022/03/31 09:58:38;;;;;;;;;12.00;11.00;;;;;7.33;64.45;99533.47;5040058;28;45447;-82
2022/03/31 10:01:04;;;;;;;;;7.25;7.25;;;;;6.92;63.91;99476.66;5039291;28;45224;-82
2022/03/31 10:03:30;;;;;;;;;13.25;13.00;;;;;7.11;64.58;99506.38;5040342;28;45166;-83
2022/03/31 10:05:57;;;;;;;;;10.50;9.50;;;;;7.21;64.74;99520.34;5032188;28;46005;-81
2022/03/31 10:08:23;;;;;;;;;12.00;10.75;;;;;7.39;64.03;99525.63;5020285;28;45534;-82
2022/03/31 10:10:49;;;;;;;;;15.75;10.50;;;;;7.50;64.19;99536.09;5026223;28;45426;-82
2022/03/31 10:13:24;;;;;;;;;10.00;9.75;;;;;7.58;64.28;99531.72;5033239;28;45427;-83
2022/03/31 10:15:58;;;;;;;;;10.75;10.75;;;;;7.56;64.24;99530.88;5021869;28;47260;-81
2022/03/31 10:18:24;;;;;;;;;15.75;15.25;;;;;7.58;64.28;99529.13;5021129;28;45331;-82
2022/03/31 10:20:57;;;;;;;;;13.00;12.25;;;;;7.66;62.79;99532.59;5019612;28;45367;-82
2022/03/31 10:26:25;;;;;;;;;8.00;8.00;;;;;7.66;63.67;99545.72;5032907;28;45452;-82
2022/03/31 10:28:59;;;;;;;;;9.25;9.25;;;;;7.42;62.89;99497.66;5040746;28;45197;-83
2022/03/31 10:31:54;;;;;;;;;9.50;9.50;;;;;7.83;62.94;99549.22;5041360;28;45413;-80
2022/03/31 10:34:20;;;;;;;;;10.00;7.00;;;;;7.74;61.69;99512.50;4998058;28;45369;-81
2022/03/31 10:36:50;;;;;;;;;8.25;8.25;;;;;7.96;62.80;99529.09;5000966;28;46056;-82
2022/03/31 10:39:23;;;;;;;;;6.25;6.25;;;;;7.84;60.79;99477.53;4997385;28;45489;-82
2022/03/31 10:42:01;;;;;;;;;8.25;8.25;;;;;8.31;60.91;99515.91;4997547;28;45480;-80
2022/03/31 10:44:27;;;;;;;;;7.75;7.00;;;;;9.27;59.92;99536.44;4997488;28;45234;-82
2022/03/31 10:47:06;;;;;;;;;8.00;7.25;;;;;10.17;57.34;99509.38;4997307;28;46289;-82
2022/03/31 10:49:34;;;;;;;;;12.00;6.50;;;;;10.56;55.06;99530.91;4980940;28;45320;-81
2022/03/31 10:52:11;;;;;;;;;12.50;11.50;;;;;10.50;54.44;99537.09;4999722;28;45531;-83
2022/03/31 10:54:36;;;;;;;;;4.25;4.25;;;;;10.41;54.45;99525.81;4998167;28;45372;-82
2022/03/31 10:57:20;;;;;;;;;3.25;3.25;;;;;10.35;54.59;99520.63;4997272;28;46024;-83
2022/03/31 10:59:49;;;;;;;;;3.00;3.00;;;;;10.44;54.05;99510.88;4997450;28;45441;-79
2022/03/31 11:02:22;;;;;;;;;2.50;2.25;;;;;10.76;52.88;99518.34;4993251;28;45267;-79
2022/03/31 11:04:53;;;;;;;;;5.25;3.00;;;;;10.96;53.17;99530.41;4977989;28;45351;-78
2022/03/31 11:07:22;;;;;;;;;6.75;3.00;;;;;10.89;52.38;99512.91;4961373;28;47425;-81
2022/03/31 11:09:48;;;;;;;;;4.75;3.25;;;;;11.14;52.76;99523.09;4982458;28;45356;-82
2022/03/31 11:12:26;;;;;;;;;4.25;2.75;;;;;11.02;52.76;99528.56;5019237;28;45275;-82
2022/03/31 11:15:02;;;;;;;;;5.25;3.50;;;;;11.03;52.05;99453.88;5019325;28;45360;-80
2022/03/31 11:17:29;;;;;;;;;4.75;3.75;;;;;11.23;49.67;99448.28;5019692;28;46062;-80
2022/03/31 11:19:56;;;;;;;;;9.00;7.50;;;;;12.00;48.73;99508.53;5019242;28;45457;-78
2022/03/31 11:22:26;;;;;;;;;5.75;5.75;;;;;11.89;49.36;99519.31;5019077;28;45236;-81
2022/03/31 11:24:51;;;;;;;;;6.25;6.25;;;;;11.60;50.58;99518.91;5019232;28;45210;-82
2022/03/31 11:27:36;;;;;;;;;7.00;6.50;;;;;11.19;50.09;99486.16;5020076;28;46579;-83
2022/03/31 11:30:04;;;;;;;;;7.00;7.00;;;;;11.10;50.99;99515.28;5020327;28;45348;-83